createdAt,value
2023-01-29T00:01:00.734Z,30.7
2023-01-29T00:07:07.135Z,30.8
2023-01-29T00:13:12.905Z,30.8
2023-01-29T00:19:18.668Z,30.8
2023-01-29T00:25:24.625Z,30.8
2023-01-29T00:31:30.736Z,30.8
2023-01-29T00:37:37.020Z,30.8
2023-01-29T00:43:42.899Z,30.8
2023-01-29T00:49:48.978Z,30.8
2023-01-29T00:55:55.374Z,30.8
2023-01-29T01:02:02.235Z,30.9
2023-01-29T01:08:08.372Z,30.9
2023-01-29T01:14:14.342Z,30.8
2023-01-29T01:20:21.363Z,30.8
2023-01-29T01:26:27.540Z,31
2023-01-29T01:32:33.732Z,30.8
2023-01-29T01:38:39.898Z,30.9
2023-01-29T01:44:46.101Z,30.8
2023-01-29T01:50:52.094Z,30.9
2023-01-29T01:56:58.251Z,30.8
2023-01-29T02:03:04.656Z,30.9
2023-01-29T02:09:10.639Z,30.8
2023-01-29T02:15:16.519Z,31
2023-01-29T02:21:22.195Z,30.9
2023-01-29T02:27:28.373Z,30.8
2023-01-29T02:33:34.138Z,30.8
2023-01-29T02:39:40.330Z,31
2023-01-29T02:45:46.154Z,30.7
2023-01-29T02:51:52.193Z,30.7
2023-01-29T02:57:58.121Z,30.7
2023-01-29T03:04:04.450Z,30.7
2023-01-29T03:10:10.842Z,30.9
2023-01-29T03:16:17.267Z,30.7
2023-01-29T03:22:23.011Z,30.7
2023-01-29T03:28:29.002Z,30.7
2023-01-29T03:34:34.979Z,30.7
2023-01-29T03:40:40.338Z,30.7
2023-01-29T03:46:46.937Z,30.7
2023-01-29T03:52:53.330Z,30.8
2023-01-29T03:58:59.133Z,30.9
2023-01-29T04:05:05.492Z,30.7
2023-01-29T04:11:11.893Z,31
2023-01-29T04:17:17.643Z,30.8
2023-01-29T04:23:23.880Z,30.7
2023-01-29T04:29:32.899Z,30.8
2023-01-29T04:35:39.092Z,30.7
2023-01-29T04:41:45.282Z,30.8
2023-01-29T04:47:51.050Z,30.8
2023-01-29T04:53:56.851Z,30.7
2023-01-29T05:00:03.217Z,30.8
2023-01-29T05:06:09.610Z,30.7
2023-01-29T05:12:15.439Z,30.7
2023-01-29T05:18:21.119Z,30.8
2023-01-29T05:24:27.286Z,30.7
2023-01-29T05:30:33.347Z,30.9
2023-01-29T05:36:39.518Z,30.7
2023-01-29T05:42:45.369Z,30.8
2023-01-29T05:48:51.371Z,30.8
2023-01-29T05:54:56.923Z,30.8
2023-01-29T06:01:03.131Z,30.8
2023-01-29T06:07:08.931Z,30.5
2023-01-29T06:13:15.093Z,30.6
2023-01-29T06:19:21.293Z,30.6
2023-01-29T06:25:27.054Z,30.5
2023-01-29T06:31:43.089Z,30.3
2023-01-29T06:37:49.320Z,30.4
2023-01-29T06:43:55.660Z,30.5
2023-01-29T06:50:01.636Z,30.5
2023-01-29T06:56:08.219Z,30.3
2023-01-29T07:02:14.259Z,30.5
2023-01-29T07:08:19.880Z,30.5
2023-01-29T07:14:26.163Z,30.6
2023-01-29T07:20:32.170Z,30.6
2023-01-29T07:26:38.357Z,30.7
2023-01-29T07:32:44.933Z,30.7
2023-01-29T07:38:50.291Z,30.5
2023-01-29T07:44:56.515Z,30.7
2023-01-29T07:51:02.699Z,30.4
2023-01-29T07:57:08.451Z,30.6
2023-01-29T08:03:14.500Z,30.2
2023-01-29T08:09:20.603Z,30.5
2023-01-29T08:15:27.009Z,30.2
2023-01-29T08:21:33.040Z,30.1
2023-01-29T08:27:39.194Z,30.2
2023-01-29T08:33:45.371Z,30
2023-01-29T08:39:51.331Z,30.3
2023-01-29T08:45:57.764Z,30.2
2023-01-29T08:52:06.574Z,30
2023-01-29T08:58:12.975Z,29.9
2023-01-29T09:04:18.443Z,29.8
2023-01-29T09:10:24.774Z,30
2023-01-29T09:16:30.961Z,30
2023-01-29T09:22:37.091Z,30
2023-01-29T09:28:43.163Z,29.8
2023-01-29T09:34:48.845Z,29.8
2023-01-29T09:40:55.044Z,29.7
2023-01-29T09:47:01.635Z,29.7
2023-01-29T09:53:07.636Z,29.8
2023-01-29T09:59:13.599Z,30
2023-01-29T10:05:21.205Z,29.7
2023-01-29T10:11:27.616Z,29.8
2023-01-29T10:17:33.405Z,29.8
2023-01-29T10:23:39.778Z,29.7
2023-01-29T10:29:45.562Z,29.6
2023-01-29T10:35:51.523Z,29.7
2023-01-29T10:41:57.928Z,29.7
2023-01-29T10:48:03.894Z,29.5
2023-01-29T10:54:10.300Z,29.8
2023-01-29T11:00:16.291Z,29.9
2023-01-29T11:06:22.686Z,30
2023-01-29T11:12:29.054Z,29.8
2023-01-29T11:18:35.444Z,29.9
2023-01-29T11:24:42.048Z,29.9
2023-01-29T11:30:48.506Z,29.8
2023-01-29T11:36:54.634Z,29.9
2023-01-29T11:43:00.816Z,29.8
2023-01-29T11:49:22.773Z,29.9
2023-01-29T11:55:37.959Z,29.9
2023-01-29T12:01:54.205Z,29.8
2023-01-29T12:08:01.207Z,30.1
2023-01-29T12:14:07.364Z,29.8
2023-01-29T12:20:13.865Z,30.1
2023-01-29T12:26:20.607Z,29.9
2023-01-29T12:32:26.341Z,30.1
2023-01-29T12:38:32.745Z,29.9
2023-01-29T12:44:39.331Z,29.9
2023-01-29T12:50:45.730Z,30.1
2023-01-29T12:56:52.119Z,29.8
2023-01-29T13:02:58.151Z,29.7
2023-01-29T13:09:04.690Z,30.1
2023-01-29T13:15:10.876Z,29.9
2023-01-29T13:21:17.056Z,29.7
2023-01-29T13:27:23.255Z,30
2023-01-29T13:33:29.452Z,30
2023-01-29T13:39:35.621Z,30
2023-01-29T13:45:42.042Z,29.9
2023-01-29T13:51:48.206Z,29.8
2023-01-29T13:57:58.051Z,29.8
2023-01-29T14:04:08.427Z,29.8
2023-01-29T14:10:17.614Z,29.8
2023-01-29T14:16:24.048Z,29.9
2023-01-29T14:22:29.846Z,29.9
2023-01-29T14:28:35.801Z,29.7
2023-01-29T14:34:41.958Z,29.7
2023-01-29T14:40:48.565Z,29.7
2023-01-29T14:46:54.930Z,29.7
2023-01-29T14:53:00.733Z,29.5
2023-01-29T14:59:06.886Z,29.6
2023-01-29T15:05:13.080Z,29.8
2023-01-29T15:11:18.864Z,29.7
2023-01-29T15:17:25.455Z,29.6
2023-01-29T15:23:31.447Z,30
2023-01-29T15:29:37.405Z,29.7
2023-01-29T15:35:43.669Z,30
2023-01-29T15:41:49.364Z,29.7
2023-01-29T15:47:55.575Z,29.7
2023-01-29T15:54:01.765Z,29.6
2023-01-29T16:00:08.127Z,29.5
2023-01-29T16:06:14.532Z,29.6
2023-01-29T16:12:20.740Z,29.6
2023-01-29T16:18:26.684Z,29.6
2023-01-29T16:24:32.883Z,29.9
2023-01-29T16:30:39.450Z,29.7
2023-01-29T16:36:45.259Z,29.5
2023-01-29T16:42:51.660Z,29.5
2023-01-29T16:48:58.081Z,29.6
2023-01-29T16:55:04.229Z,29.5
2023-01-29T17:01:10.279Z,29.8
2023-01-29T17:07:16.400Z,29.5
2023-01-29T17:13:22.380Z,29.6
2023-01-29T17:19:28.770Z,29.5
2023-01-29T17:25:35.763Z,29.5
2023-01-29T17:31:42.174Z,29.6
2023-01-29T17:37:48.558Z,29.7
2023-01-29T17:43:54.770Z,29.5
2023-01-29T17:50:00.800Z,29.9
2023-01-29T17:56:06.802Z,29.5
2023-01-29T18:02:32.394Z,29.6
2023-01-29T18:08:38.729Z,29.8
2023-01-29T18:14:45.126Z,29.5
2023-01-29T18:20:51.187Z,29.6
2023-01-29T18:26:57.911Z,29.6
2023-01-29T18:33:04.291Z,29.7
2023-01-29T18:39:10.283Z,29.6
2023-01-29T18:45:16.345Z,29.6
2023-01-29T18:51:22.649Z,29.6
2023-01-29T18:58:38.892Z,29.5
2023-01-29T19:04:44.861Z,29.5
2023-01-29T19:10:51.244Z,29.9
2023-01-29T19:16:57.106Z,29.5
2023-01-29T19:23:03.415Z,29.4
2023-01-29T19:29:13.084Z,29.4
2023-01-29T19:35:20.318Z,29.3
2023-01-29T19:41:26.889Z,29.3
2023-01-29T19:47:33.319Z,29.3
2023-01-29T19:53:39.252Z,29.3
2023-01-29T19:59:47.697Z,29.3
2023-01-29T20:05:53.895Z,29.5
2023-01-29T20:12:00.276Z,29.5
2023-01-29T20:18:06.453Z,29.2
2023-01-29T20:24:12.869Z,29.3
2023-01-29T20:30:20.010Z,29.3
2023-01-29T20:36:26.045Z,29.3
2023-01-29T20:42:32.445Z,29.2
2023-01-29T20:48:38.415Z,29.1
2023-01-29T20:54:45.215Z,29
2023-01-29T21:00:51.226Z,29.1
2023-01-29T21:06:57.415Z,29.2
2023-01-29T21:13:03.368Z,29.1
2023-01-29T21:19:09.576Z,29
2023-01-29T21:25:15.736Z,29
2023-01-29T21:31:22.008Z,28.8
2023-01-29T21:37:27.926Z,28.9
2023-01-29T21:43:33.894Z,28.9
2023-01-29T21:49:40.683Z,29
2023-01-29T21:55:46.704Z,28.8
2023-01-29T22:01:52.727Z,28.8
2023-01-29T22:07:59.076Z,28.8
2023-01-29T22:14:05.042Z,29
2023-01-29T22:20:11.245Z,28.6
2023-01-29T22:26:17.546Z,28.6
2023-01-29T22:32:23.306Z,28.5
2023-01-29T22:38:29.480Z,28.6
2023-01-29T22:44:36.563Z,28.6
2023-01-29T22:50:42.562Z,28.5
2023-01-29T22:56:48.556Z,28.6
2023-01-29T23:02:54.762Z,28.5
2023-01-29T23:09:00.691Z,28.5
2023-01-29T23:15:06.700Z,28.4
2023-01-29T23:21:12.874Z,28.5
2023-01-29T23:27:18.843Z,28.4
2023-01-29T23:33:24.617Z,28.4
2023-01-29T23:39:31.002Z,28.4
2023-01-29T23:45:37.404Z,28.4
2023-01-29T23:51:43.204Z,28.3
2023-01-29T23:57:48.762Z,28.3
